sensor_id;sensor_type;location;lat;lon;timestamp;pressure;altitude;pressure_sealevel;temperature;humidity
21658;BME280;10990;48.174;9.782;2023-07-24T00:00:13;93874.66;;;17.85;100.00
21658;BME280;10990;48.174;9.782;2023-07-24T00:02:40;93865.16;;;18.23;100.00
21658;BME280;10990;48.174;9.782;2023-07-24T00:05:07;93873.13;;;18.35;100.00
21658;BME280;10990;48.174;9.782;2023-07-24T00:07:35;93892.09;;;18.17;100.00
21658;BME280;10990;48.174;9.782;2023-07-24T00:10:04;93882.41;;;18.15;100.00
21658;BME280;10990;48.174;9.782;2023-07-24T00:12:30;93917.34;;;18.37;100.00
21658;BME280;10990;48.174;9.782;2023-07-24T00:14:57;93914.75;;;18.43;100.00
21658;BME280;10990;48.174;9.782;2023-07-24T00:17:24;93930.00;;;18.42;100.00
21658;BME280;10990;48.174;9.782;2023-07-24T00:19:51;93928.38;;;18.41;100.00
21658;BME280;10990;48.174;9.782;2023-07-24T00:22:17;93941.53;;;18.43;100.00
21658;BME280;10990;48.174;9.782;2023-07-24T00:24:44;93937.78;;;18.44;100.00
21658;BME280;10990;48.174;9.782;2023-07-24T00:27:12;93945.41;;;18.35;100.00
21658;BME280;10990;48.174;9.782;2023-07-24T00:29:39;93942.97;;;18.33;100.00
21658;BME280;10990;48.174;9.782;2023-07-24T00:32:06;93928.31;;;17.96;100.00
21658;BME280;10990;48.174;9.782;2023-07-24T00:34:34;93913.06;;;18.08;100.00
21658;BME280;10990;48.174;9.782;2023-07-24T00:37:01;93896.22;;;17.96;100.00
21658;BME280;10990;48.174;9.782;2023-07-24T00:39:29;93904.41;;;17.89;100.00
21658;BME280;10990;48.174;9.782;2023-07-24T00:41:56;93901.97;;;17.87;100.00
21658;BME280;10990;48.174;9.782;2023-07-24T00:44:24;93909.44;;;17.85;100.00
21658;BME280;10990;48.174;9.782;2023-07-24T00:46:51;93920.19;;;18.02;100.00
21658;BME280;10990;48.174;9.782;2023-07-24T00:49:20;93950.75;;;18.06;100.00
21658;BME280;10990;48.174;9.782;2023-07-24T00:51:47;93945.50;;;18.11;100.00
21658;BME280;10990;48.174;9.782;2023-07-24T00:54:15;93931.16;;;17.77;100.00
21658;BME280;10990;48.174;9.782;2023-07-24T00:56:44;93761.22;;;17.41;100.00
21658;BME280;10990;48.174;9.782;2023-07-24T00:59:11;93675.59;;;17.19;100.00
21658;BME280;10990;48.174;9.782;2023-07-24T01:01:40;93583.03;;;16.96;100.00
21658;BME280;10990;48.174;9.782;2023-07-24T01:04:08;93519.53;;;17.15;100.00
21658;BME280;10990;48.174;9.782;2023-07-24T01:06:34;93375.13;;;17.21;100.00
21658;BME280;10990;48.174;9.782;2023-07-24T01:09:02;93304.88;;;17.43;100.00
21658;BME280;10990;48.174;9.782;2023-07-24T01:11:33;93214.66;;;17.28;100.00
21658;BME280;10990;48.174;9.782;2023-07-24T01:14:08;93176.22;;;17.61;100.00
21658;BME280;10990;48.174;9.782;2023-07-24T01:16:37;93160.31;;;17.44;100.00
21658;BME280;10990;48.174;9.782;2023-07-24T01:19:12;93147.63;;;17.89;100.00
21658;BME280;10990;48.174;9.782;2023-07-24T01:21:45;93113.97;;;17.98;100.00
21658;BME280;10990;48.174;9.782;2023-07-24T01:24:24;93090.78;;;18.09;100.00
21658;BME280;10990;48.174;9.782;2023-07-24T01:26:57;93084.22;;;17.84;100.00
21658;BME280;10990;48.174;9.782;2023-07-24T01:29:24;93076.06;;;18.06;100.00
21658;BME280;10990;48.174;9.782;2023-07-24T01:31:51;93078.50;;;17.76;100.00
21658;BME280;10990;48.174;9.782;2023-07-24T01:34:18;93057.13;;;17.76;100.00
21658;BME280;10990;48.174;9.782;2023-07-24T01:36:45;93019.38;;;17.67;100.00
21658;BME280;10990;48.174;9.782;2023-07-24T01:39:13;93011.50;;;17.82;100.00
21658;BME280;10990;48.174;9.782;2023-07-24T01:41:40;92998.94;;;17.83;100.00
21658;BME280;10990;48.174;9.782;2023-07-24T01:44:09;93025.50;;;18.00;100.00
21658;BME280;10990;48.174;9.782;2023-07-24T01:46:36;93175.13;;;17.57;100.00
21658;BME280;10990;48.174;9.782;2023-07-24T01:49:02;93242.63;;;17.20;100.00
21658;BME280;10990;48.174;9.782;2023-07-24T01:51:29;93145.66;;;17.20;100.00
21658;BME280;10990;48.174;9.782;2023-07-24T01:53:57;93033.56;;;17.30;100.00
21658;BME280;10990;48.174;9.782;2023-07-24T01:56:23;92976.84;;;17.18;100.00
21658;BME280;10990;48.174;9.782;2023-07-24T01:58:50;92896.69;;;17.13;100.00
21658;BME280;10990;48.174;9.782;2023-07-24T02:01:18;92872.44;;;17.24;100.00
21658;BME280;10990;48.174;9.782;2023-07-24T02:03:45;92825.69;;;17.22;100.00
21658;BME280;10990;48.174;9.782;2023-07-24T02:06:11;92793.84;;;17.05;100.00
21658;BME280;10990;48.174;9.782;2023-07-24T02:08:38;92754.38;;;17.12;100.00
21658;BME280;10990;48.174;9.782;2023-07-24T02:11:05;92711.16;;;17.36;100.00
21658;BME280;10990;48.174;9.782;2023-07-24T02:13:31;92673.78;;;17.46;100.00
21658;BME280;10990;48.174;9.782;2023-07-24T02:15:58;92670.00;;;17.21;100.00
21658;BME280;10990;48.174;9.782;2023-07-24T02:18:26;92652.63;;;17.19;100.00
21658;BME280;10990;48.174;9.782;2023-07-24T02:20:53;92644.31;;;17.05;100.00
21658;BME280;10990;48.174;9.782;2023-07-24T02:23:19;92611.78;;;17.18;100.00
21658;BME280;10990;48.174;9.782;2023-07-24T02:25:50;92593.63;;;17.20;100.00
21658;BME280;10990;48.174;9.782;2023-07-24T02:28:17;92593.31;;;16.96;100.00
21658;BME280;10990;48.174;9.782;2023-07-24T02:30:46;92566.34;;;17.03;100.00
21658;BME280;10990;48.174;9.782;2023-07-24T02:33:13;92543.94;;;17.24;100.00
21658;BME280;10990;48.174;9.782;2023-07-24T02:35:42;92529.00;;;17.49;100.00
21658;BME280;10990;48.174;9.782;2023-07-24T02:38:09;92514.53;;;17.55;100.00
21658;BME280;10990;48.174;9.782;2023-07-24T02:40:40;92511.84;;;17.70;100.00
21658;BME280;10990;48.174;9.782;2023-07-24T02:43:07;92513.47;;;17.66;100.00
21658;BME280;10990;48.174;9.782;2023-07-24T02:45:34;92506.25;;;17.62;100.00
21658;BME280;10990;48.174;9.782;2023-07-24T02:48:01;92492.66;;;17.28;100.00
21658;BME280;10990;48.174;9.782;2023-07-24T02:50:29;92476.34;;;17.39;100.00
21658;BME280;10990;48.174;9.782;2023-07-24T02:52:57;92484.41;;;17.19;100.00
21658;BME280;10990;48.174;9.782;2023-07-24T02:55:24;92455.56;;;17.26;100.00
21658;BME280;10990;48.174;9.782;2023-07-24T02:57:51;92457.69;;;17.19;100.00
21658;BME280;10990;48.174;9.782;2023-07-24T03:00:17;92399.69;;;17.45;100.00
21658;BME280;10990;48.174;9.782;2023-07-24T03:02:44;92403.97;;;17.36;100.00
21658;BME280;10990;48.174;9.782;2023-07-24T03:05:11;92388.19;;;17.50;100.00
21658;BME280;10990;48.174;9.782;2023-07-24T03:07:38;92385.28;;;17.31;100.00
21658;BME280;10990;48.174;9.782;2023-07-24T03:10:07;92376.75;;;17.29;100.00
21658;BME280;10990;48.174;9.782;2023-07-24T03:12:34;92373.63;;;16.86;100.00
21658;BME280;10990;48.174;9.782;2023-07-24T03:15:02;92342.09;;;17.08;100.00
21658;BME280;10990;48.174;9.782;2023-07-24T03:17:28;92311.59;;;17.30;100.00
21658;BME280;10990;48.174;9.782;2023-07-24T03:19:55;92312.47;;;17.10;100.00
21658;BME280;10990;48.174;9.782;2023-07-24T03:22:22;92290.78;;;17.21;100.00
21658;BME280;10990;48.174;9.782;2023-07-24T03:24:49;92281.69;;;17.22;100.00
21658;BME280;10990;48.174;9.782;2023-07-24T03:27:17;92292.16;;;17.09;100.00
21658;BME280;10990;48.174;9.782;2023-07-24T03:29:43;92297.00;;;17.07;100.00
21658;BME280;10990;48.174;9.782;2023-07-24T03:32:09;92280.09;;;17.32;100.00
21658;BME280;10990;48.174;9.782;2023-07-24T03:34:36;92231.66;;;17.48;100.00
21658;BME280;10990;48.174;9.782;2023-07-24T03:37:03;92255.59;;;17.09;100.00
21658;BME280;10990;48.174;9.782;2023-07-24T03:39:30;92221.91;;;17.18;100.00
21658;BME280;10990;48.174;9.782;2023-07-24T03:41:56;92213.06;;;17.23;100.00
21658;BME280;10990;48.174;9.782;2023-07-24T03:44:25;92226.72;;;17.16;100.00
21658;BME280;10990;48.174;9.782;2023-07-24T03:46:51;92208.81;;;17.22;100.00
21658;BME280;10990;48.174;9.782;2023-07-24T03:49:18;92181.22;;;17.37;100.00
21658;BME280;10990;48.174;9.782;2023-07-24T03:51:44;92173.16;;;17.42;100.00
21658;BME280;10990;48.174;9.782;2023-07-24T03:54:11;92161.34;;;17.53;100.00
21658;BME280;10990;48.174;9.782;2023-07-24T03:56:38;92157.34;;;17.51;100.00
21658;BME280;10990;48.174;9.782;2023-07-24T03:59:05;92158.19;;;17.46;100.00
21658;BME280;10990;48.174;9.782;2023-07-24T04:01:33;92145.31;;;17.53;100.00
21658;BME280;10990;48.174;9.782;2023-07-24T04:04:00;92148.78;;;17.54;100.00
21658;BME280;10990;48.174;9.782;2023-07-24T04:06:27;92171.59;;;17.41;100.00
21658;BME280;10990;48.174;9.782;2023-07-24T04:08:54;92156.66;;;17.35;100.00
21658;BME280;10990;48.174;9.782;2023-07-24T04:11:20;92149.22;;;17.32;100.00
21658;BME280;10990;48.174;9.782;2023-07-24T04:13:47;92142.81;;;17.28;100.00
21658;BME280;10990;48.174;9.782;2023-07-24T04:16:14;92130.56;;;17.27;100.00
21658;BME280;10990;48.174;9.782;2023-07-24T04:18:42;92131.88;;;17.29;100.00
21658;BME280;10990;48.174;9.782;2023-07-24T04:21:08;92111.75;;;17.37;100.00
21658;BME280;10990;48.174;9.782;2023-07-24T04:23:35;92099.38;;;17.51;100.00
21658;BME280;10990;48.174;9.782;2023-07-24T04:26:02;92096.47;;;17.47;100.00
21658;BME280;10990;48.174;9.782;2023-07-24T04:28:28;92103.44;;;17.48;100.00
21658;BME280;10990;48.174;9.782;2023-07-24T04:30:59;92100.19;;;17.52;100.00
21658;BME280;10990;48.174;9.782;2023-07-24T04:33:25;92093.16;;;17.61;100.00
21658;BME280;10990;48.174;9.782;2023-07-24T04:35:54;92107.94;;;17.48;100.00
21658;BME280;10990;48.174;9.782;2023-07-24T04:38:20;92097.22;;;17.53;100.00
21658;BME280;10990;48.174;9.782;2023-07-24T04:40:47;92094.56;;;17.53;100.00
21658;BME280;10990;48.174;9.782;2023-07-24T04:43:14;92078.09;;;17.70;100.00
21658;BME280;10990;48.174;9.782;2023-07-24T04:45:40;92079.94;;;17.75;100.00
21658;BME280;10990;48.174;9.782;2023-07-24T04:48:07;92085.91;;;17.66;100.00
21658;BME280;10990;48.174;9.782;2023-07-24T04:50:34;92078.28;;;17.84;100.00
21658;BME280;10990;48.174;9.782;2023-07-24T04:53:02;92087.19;;;18.03;100.00
21658;BME280;10990;48.174;9.782;2023-07-24T04:55:28;92112.78;;;18.09;100.00
21658;BME280;10990;48.174;9.782;2023-07-24T04:57:55;92130.53;;;18.00;100.00
21658;BME280;10990;48.174;9.782;2023-07-24T05:00:22;92124.75;;;18.17;100.00
21658;BME280;10990;48.174;9.782;2023-07-24T05:02:48;92112.06;;;18.28;100.00
21658;BME280;10990;48.174;9.782;2023-07-24T05:05:15;92112.06;;;18.28;100.00
21658;BME280;10990;48.174;9.782;2023-07-24T05:07:42;92103.00;;;18.24;100.00
21658;BME280;10990;48.174;9.782;2023-07-24T05:10:10;92096.78;;;18.04;100.00
21658;BME280;10990;48.174;9.782;2023-07-24T05:12:40;92097.97;;;18.22;100.00
21658;BME280;10990;48.174;9.782;2023-07-24T05:15:08;92086.00;;;18.14;100.00
21658;BME280;10990;48.174;9.782;2023-07-24T05:17:35;92096.13;;;17.94;100.00
21658;BME280;10990;48.174;9.782;2023-07-24T05:20:02;92089.50;;;17.86;100.00
21658;BME280;10990;48.174;9.782;2023-07-24T05:22:29;92041.22;;;18.01;100.00
21658;BME280;10990;48.174;9.782;2023-07-24T05:24:55;92015.63;;;18.19;100.00
21658;BME280;10990;48.174;9.782;2023-07-24T05:27:23;92026.91;;;18.16;100.00
21658;BME280;10990;48.174;9.782;2023-07-24T05:29:50;92008.06;;;18.45;100.00
21658;BME280;10990;48.174;9.782;2023-07-24T05:32:17;92020.66;;;18.45;100.00
21658;BME280;10990;48.174;9.782;2023-07-24T05:34:43;92048.56;;;18.57;100.00
21658;BME280;10990;48.174;9.782;2023-07-24T05:37:10;92076.78;;;18.74;100.00
21658;BME280;10990;48.174;9.782;2023-07-24T05:39:37;92113.25;;;18.65;100.00
21658;BME280;10990;48.174;9.782;2023-07-24T05:42:04;92142.91;;;18.44;100.00
21658;BME280;10990;48.174;9.782;2023-07-24T05:44:32;92193.38;;;18.27;100.00
21658;BME280;10990;48.174;9.782;2023-07-24T05:47:01;92198.69;;;18.03;100.00
21658;BME280;10990;48.174;9.782;2023-07-24T05:49:27;92165.00;;;18.02;100.00
21658;BME280;10990;48.174;9.782;2023-07-24T05:51:54;92166.06;;;18.01;100.00
21658;BME280;10990;48.174;9.782;2023-07-24T05:54:22;92144.09;;;18.09;100.00
21658;BME280;10990;48.174;9.782;2023-07-24T05:56:48;92145.84;;;18.19;100.00
21658;BME280;10990;48.174;9.782;2023-07-24T05:59:15;92160.91;;;18.09;100.00
21658;BME280;10990;48.174;9.782;2023-07-24T06:01:43;92190.69;;;17.98;100.00
21658;BME280;10990;48.174;9.782;2023-07-24T06:04:10;92211.91;;;18.18;100.00
21658;BME280;10990;48.174;9.782;2023-07-24T06:06:37;92231.16;;;18.20;100.00
21658;BME280;10990;48.174;9.782;2023-07-24T06:09:03;92246.88;;;18.27;100.00
21658;BME280;10990;48.174;9.782;2023-07-24T06:11:30;92268.84;;;18.24;100.00
21658;BME280;10990;48.174;9.782;2023-07-24T06:13:57;92261.66;;;18.19;100.00
21658;BME280;10990;48.174;9.782;2023-07-24T06:16:23;92283.38;;;18.12;100.00
21658;BME280;10990;48.174;9.782;2023-07-24T06:18:51;92288.50;;;18.04;100.00
21658;BME280;10990;48.174;9.782;2023-07-24T06:21:18;92289.31;;;18.04;100.00
21658;BME280;10990;48.174;9.782;2023-07-24T06:23:44;92296.28;;;18.00;100.00
21658;BME280;10990;48.174;9.782;2023-07-24T06:26:11;92302.19;;;17.97;100.00
21658;BME280;10990;48.174;9.782;2023-07-24T06:28:38;92304.91;;;17.92;100.00
21658;BME280;10990;48.174;9.782;2023-07-24T06:31:04;92325.19;;;17.93;100.00
21658;BME280;10990;48.174;9.782;2023-07-24T06:33:31;92332.50;;;17.82;100.00
21658;BME280;10990;48.174;9.782;2023-07-24T06:35:59;92303.88;;;17.88;100.00
21658;BME280;10990;48.174;9.782;2023-07-24T06:38:26;92279.75;;;17.93;100.00
21658;BME280;10990;48.174;9.782;2023-07-24T06:40:52;92248.53;;;17.88;100.00
21658;BME280;10990;48.174;9.782;2023-07-24T06:43:19;92230.00;;;17.97;100.00
21658;BME280;10990;48.174;9.782;2023-07-24T06:45:46;92205.63;;;18.04;100.00
21658;BME280;10990;48.174;9.782;2023-07-24T06:48:12;92287.69;;;18.08;100.00
21658;BME280;10990;48.174;9.782;2023-07-24T06:50:39;92266.28;;;18.08;100.00
21658;BME280;10990;48.174;9.782;2023-07-24T06:53:07;92291.59;;;18.21;100.00
21658;BME280;10990;48.174;9.782;2023-07-24T06:55:34;92289.22;;;18.20;100.00
21658;BME280;10990;48.174;9.782;2023-07-24T06:58:00;92296.84;;;18.36;100.00
21658;BME280;10990;48.174;9.782;2023-07-24T07:00:27;92325.72;;;18.34;100.00
21658;BME280;10990;48.174;9.782;2023-07-24T07:02:53;92332.06;;;18.44;100.00
21658;BME280;10990;48.174;9.782;2023-07-24T07:05:20;92335.78;;;18.53;100.00
21658;BME280;10990;48.174;9.782;2023-07-24T07:07:47;92344.59;;;18.53;100.00
21658;BME280;10990;48.174;9.782;2023-07-24T07:10:15;92364.84;;;18.65;100.00
21658;BME280;10990;48.174;9.782;2023-07-24T07:12:42;92378.19;;;18.70;100.00
21658;BME280;10990;48.174;9.782;2023-07-24T07:15:09;92407.91;;;18.68;100.00
21658;BME280;10990;48.174;9.782;2023-07-24T07:17:36;92407.03;;;18.78;100.00
21658;BME280;10990;48.174;9.782;2023-07-24T07:20:03;92428.75;;;18.76;100.00
21658;BME280;10990;48.174;9.782;2023-07-24T07:22:30;92457.16;;;18.67;100.00
21658;BME280;10990;48.174;9.782;2023-07-24T07:24:56;92470.00;;;18.70;100.00
21658;BME280;10990;48.174;9.782;2023-07-24T07:27:24;92505.84;;;18.79;100.00
21658;BME280;10990;48.174;9.782;2023-07-24T07:29:51;92569.13;;;19.04;100.00
21658;BME280;10990;48.174;9.782;2023-07-24T07:32:18;92591.75;;;19.27;100.00
21658;BME280;10990;48.174;9.782;2023-07-24T07:34:44;92629.22;;;19.38;100.00
21658;BME280;10990;48.174;9.782;2023-07-24T07:37:11;92662.41;;;19.42;100.00
21658;BME280;10990;48.174;9.782;2023-07-24T07:39:38;92673.69;;;19.83;100.00
21658;BME280;10990;48.174;9.782;2023-07-24T07:42:05;92715.28;;;20.15;100.00
21658;BME280;10990;48.174;9.782;2023-07-24T07:44:33;92760.72;;;20.35;100.00
21658;BME280;10990;48.174;9.782;2023-07-24T07:46:59;92788.56;;;20.50;100.00
21658;BME280;10990;48.174;9.782;2023-07-24T07:49:26;92815.31;;;20.60;100.00
21658;BME280;10990;48.174;9.782;2023-07-24T07:51:53;92841.66;;;20.58;100.00
21658;BME280;10990;48.174;9.782;2023-07-24T07:54:19;92885.50;;;20.43;100.00
21658;BME280;10990;48.174;9.782;2023-07-24T07:56:46;92915.78;;;20.49;100.00
21658;BME280;10990;48.174;9.782;2023-07-24T07:59:12;92947.47;;;20.57;100.00
21658;BME280;10990;48.174;9.782;2023-07-24T08:01:40;92949.06;;;20.58;100.00
21658;BME280;10990;48.174;9.782;2023-07-24T08:04:07;92994.94;;;20.67;100.00
21658;BME280;10990;48.174;9.782;2023-07-24T08:06:34;93002.63;;;20.84;100.00
21658;BME280;10990;48.174;9.782;2023-07-24T08:09:00;93022.69;;;20.96;100.00
21658;BME280;10990;48.174;9.782;2023-07-24T08:11:27;93070.88;;;20.82;100.00
21658;BME280;10990;48.174;9.782;2023-07-24T08:13:54;93103.50;;;21.10;100.00
21658;BME280;10990;48.174;9.782;2023-07-24T08:16:21;93136.53;;;21.16;100.00
21658;BME280;10990;48.174;9.782;2023-07-24T08:18:50;93155.16;;;20.97;100.00
21658;BME280;10990;48.174;9.782;2023-07-24T08:21:16;93153.47;;;21.11;100.00
21658;BME280;10990;48.174;9.782;2023-07-24T08:23:43;93195.38;;;21.17;100.00
21658;BME280;10990;48.174;9.782;2023-07-24T08:26:09;93205.50;;;21.36;100.00
21658;BME280;10990;48.174;9.782;2023-07-24T08:28:36;93183.25;;;21.80;100.00
21658;BME280;10990;48.174;9.782;2023-07-24T08:31:07;93181.19;;;22.35;100.00
21658;BME280;10990;48.174;9.782;2023-07-24T08:33:34;93241.53;;;22.63;100.00
21658;BME280;10990;48.174;9.782;2023-07-24T08:36:03;93310.16;;;22.76;100.00
21658;BME280;10990;48.174;9.782;2023-07-24T08:38:30;93358.38;;;22.38;100.00
21658;BME280;10990;48.174;9.782;2023-07-24T08:41:05;93365.56;;;22.87;100.00
21658;BME280;10990;48.174;9.782;2023-07-24T08:43:32;93406.78;;;23.27;100.00
21658;BME280;10990;48.174;9.782;2023-07-24T08:46:00;93466.50;;;23.10;100.00
21658;BME280;10990;48.174;9.782;2023-07-24T08:48:29;93470.47;;;23.23;100.00
21658;BME280;10990;48.174;9.782;2023-07-24T08:50:57;93518.34;;;22.92;100.00
21658;BME280;10990;48.174;9.782;2023-07-24T08:53:28;93511.31;;;23.06;100.00
21658;BME280;10990;48.174;9.782;2023-07-24T08:55:56;93523.97;;;22.51;100.00
21658;BME280;10990;48.174;9.782;2023-07-24T08:58:23;93505.00;;;22.71;100.00
21658;BME280;10990;48.174;9.782;2023-07-24T09:00:49;93501.16;;;22.28;100.00
21658;BME280;10990;48.174;9.782;2023-07-24T09:03:17;93496.81;;;22.42;100.00
21658;BME280;10990;48.174;9.782;2023-07-24T09:05:45;93528.34;;;22.26;100.00
21658;BME280;10990;48.174;9.782;2023-07-24T09:08:11;93543.66;;;22.41;100.00
21658;BME280;10990;48.174;9.782;2023-07-24T09:10:39;93541.72;;;22.52;100.00
21658;BME280;10990;48.174;9.782;2023-07-24T09:13:06;93521.25;;;22.56;100.00
21658;BME280;10990;48.174;9.782;2023-07-24T09:15:40;93517.47;;;22.57;100.00
21658;BME280;10990;48.174;9.782;2023-07-24T09:18:07;93528.28;;;23.46;100.00
21658;BME280;10990;48.174;9.782;2023-07-24T09:20:38;93595.84;;;23.65;100.00
21658;BME280;10990;48.174;9.782;2023-07-24T09:23:06;93664.00;;;23.41;100.00
21658;BME280;10990;48.174;9.782;2023-07-24T09:25:33;93691.94;;;23.71;100.00
21658;BME280;10990;48.174;9.782;2023-07-24T09:28:09;93747.38;;;23.92;100.00
21658;BME280;10990;48.174;9.782;2023-07-24T09:30:35;93809.47;;;23.98;100.00
21658;BME280;10990;48.174;9.782;2023-07-24T09:33:02;93841.28;;;24.06;100.00
21658;BME280;10990;48.174;9.782;2023-07-24T09:35:29;93843.53;;;24.43;100.00
21658;BME280;10990;48.174;9.782;2023-07-24T09:38:02;93849.66;;;24.59;100.00
21658;BME280;10990;48.174;9.782;2023-07-24T09:40:38;93865.94;;;24.44;100.00
21658;BME280;10990;48.174;9.782;2023-07-24T09:43:16;93938.63;;;24.40;100.00
21658;BME280;10990;48.174;9.782;2023-07-24T09:45:43;93938.50;;;24.11;100.00
21658;BME280;10990;48.174;9.782;2023-07-24T09:48:12;93942.56;;;24.08;100.00
21658;BME280;10990;48.174;9.782;2023-07-24T09:50:41;93923.44;;;23.89;100.00
21658;BME280;10990;48.174;9.782;2023-07-24T09:53:12;93879.63;;;24.97;100.00
21658;BME280;10990;48.174;9.782;2023-07-24T09:55:49;93949.84;;;25.17;100.00
21658;BME280;10990;48.174;9.782;2023-07-24T09:58:18;94003.41;;;25.20;100.00
21658;BME280;10990;48.174;9.782;2023-07-24T10:00:45;94073.97;;;25.24;100.00
21658;BME280;10990;48.174;9.782;2023-07-24T10:03:13;94199.50;;;25.33;100.00
21658;BME280;10990;48.174;9.782;2023-07-24T10:05:41;94359.66;;;25.50;100.00
21658;BME280;10990;48.174;9.782;2023-07-24T10:08:08;94460.88;;;25.80;100.00
21658;BME280;10990;48.174;9.782;2023-07-24T10:10:36;94562.72;;;26.22;100.00
21658;BME280;10990;48.174;9.782;2023-07-24T10:13:04;94638.31;;;26.24;100.00
21658;BME280;10990;48.174;9.782;2023-07-24T10:15:33;94725.59;;;26.46;100.00
21658;BME280;10990;48.174;9.782;2023-07-24T10:18:05;94735.66;;;26.61;100.00
21658;BME280;10990;48.174;9.782;2023-07-24T10:20:35;94807.53;;;26.69;100.00
21658;BME280;10990;48.174;9.782;2023-07-24T10:23:04;94869.94;;;26.74;100.00
21658;BME280;10990;48.174;9.782;2023-07-24T10:25:32;94896.50;;;26.97;100.00
21658;BME280;10990;48.174;9.782;2023-07-24T10:28:03;94926.09;;;26.78;100.00
21658;BME280;10990;48.174;9.782;2023-07-24T10:30:34;94935.84;;;26.74;100.00
21658;BME280;10990;48.174;9.782;2023-07-24T10:33:09;94939.66;;;26.94;100.00
21658;BME280;10990;48.174;9.782;2023-07-24T10:35:41;94950.25;;;26.85;100.00
21658;BME280;10990;48.174;9.782;2023-07-24T10:38:08;94938.31;;;26.91;100.00
21658;BME280;10990;48.174;9.782;2023-07-24T10:40:35;94954.28;;;26.62;100.00
21658;BME280;10990;48.174;9.782;2023-07-24T10:43:04;94934.44;;;26.51;100.00
21658;BME280;10990;48.174;9.782;2023-07-24T10:45:47;94904.38;;;26.53;100.00
21658;BME280;10990;48.174;9.782;2023-07-24T10:48:14;94936.53;;;26.29;100.00
21658;BME280;10990;48.174;9.782;2023-07-24T10:50:42;94957.94;;;26.35;100.00
21658;BME280;10990;48.174;9.782;2023-07-24T10:53:09;95001.53;;;26.13;100.00
21658;BME280;10990;48.174;9.782;2023-07-24T10:55:36;95018.66;;;25.44;100.00
21658;BME280;10990;48.174;9.782;2023-07-24T10:58:03;95038.84;;;25.04;100.00
21658;BME280;10990;48.174;9.782;2023-07-24T11:00:30;95074.13;;;24.27;100.00
21658;BME280;10990;48.174;9.782;2023-07-24T11:02:58;94571.31;;;22.82;100.00
21658;BME280;10990;48.174;9.782;2023-07-24T11:05:24;94139.13;;;21.92;100.00
21658;BME280;10990;48.174;9.782;2023-07-24T11:07:51;93921.69;;;21.46;100.00
21658;BME280;10990;48.174;9.782;2023-07-24T11:10:20;93827.06;;;21.12;100.00
21658;BME280;10990;48.174;9.782;2023-07-24T11:12:46;93701.56;;;21.23;100.00
21658;BME280;10990;48.174;9.782;2023-07-24T11:15:14;93653.41;;;21.16;100.00
21658;BME280;10990;48.174;9.782;2023-07-24T11:17:42;93545.41;;;21.50;100.00
21658;BME280;10990;48.174;9.782;2023-07-24T11:20:12;93506.94;;;21.24;100.00
21658;BME280;10990;48.174;9.782;2023-07-24T11:22:39;93448.03;;;20.92;100.00
21658;BME280;10990;48.174;9.782;2023-07-24T11:25:07;93517.69;;;21.03;100.00
21658;BME280;10990;48.174;9.782;2023-07-24T11:27:38;93464.44;;;21.00;100.00
21658;BME280;10990;48.174;9.782;2023-07-24T11:30:07;93414.97;;;21.12;100.00
21658;BME280;10990;48.174;9.782;2023-07-24T11:32:34;93380.06;;;20.96;100.00
21658;BME280;10990;48.174;9.782;2023-07-24T11:35:01;93360.47;;;20.75;100.00
21658;BME280;10990;48.174;9.782;2023-07-24T11:37:30;93289.25;;;20.83;100.00
21658;BME280;10990;48.174;9.782;2023-07-24T11:39:58;93293.84;;;20.88;100.00
21658;BME280;10990;48.174;9.782;2023-07-24T11:42:30;93297.56;;;20.97;100.00
21658;BME280;10990;48.174;9.782;2023-07-24T11:45:00;93368.78;;;20.69;100.00
21658;BME280;10990;48.174;9.782;2023-07-24T11:47:27;93374.97;;;20.79;100.00
21658;BME280;10990;48.174;9.782;2023-07-24T11:49:59;93384.63;;;20.96;100.00
21658;BME280;10990;48.174;9.782;2023-07-24T11:52:38;93362.88;;;20.72;100.00
21658;BME280;10990;48.174;9.782;2023-07-24T11:55:07;93337.59;;;20.42;100.00
21658;BME280;10990;48.174;9.782;2023-07-24T11:57:34;93288.50;;;20.72;100.00
21658;BME280;10990;48.174;9.782;2023-07-24T12:00:01;93303.00;;;20.56;100.00
21658;BME280;10990;48.174;9.782;2023-07-24T12:02:33;93275.56;;;20.13;100.00
21658;BME280;10990;48.174;9.782;2023-07-24T12:05:00;93282.28;;;20.21;100.00
21658;BME280;10990;48.174;9.782;2023-07-24T12:07:32;93285.22;;;20.24;100.00
21658;BME280;10990;48.174;9.782;2023-07-24T12:10:01;93297.31;;;20.32;100.00
21658;BME280;10990;48.174;9.782;2023-07-24T12:12:38;93334.06;;;20.21;100.00
21658;BME280;10990;48.174;9.782;2023-07-24T12:15:06;93328.72;;;20.16;100.00
21658;BME280;10990;48.174;9.782;2023-07-24T12:17:33;93347.22;;;20.18;100.00
21658;BME280;10990;48.174;9.782;2023-07-24T12:20:00;93315.28;;;20.21;100.00
21658;BME280;10990;48.174;9.782;2023-07-24T12:22:27;93283.63;;;20.18;100.00
21658;BME280;10990;48.174;9.782;2023-07-24T12:24:54;93280.09;;;19.77;100.00
21658;BME280;10990;48.174;9.782;2023-07-24T12:27:22;93255.13;;;19.76;100.00
21658;BME280;10990;48.174;9.782;2023-07-24T12:29:50;93226.19;;;19.99;100.00
21658;BME280;10990;48.174;9.782;2023-07-24T12:32:17;93217.00;;;19.64;100.00
21658;BME280;10990;48.174;9.782;2023-07-24T12:34:46;93165.81;;;19.76;100.00
21658;BME280;10990;48.174;9.782;2023-07-24T12:37:12;93148.66;;;19.82;100.00
21658;BME280;10990;48.174;9.782;2023-07-24T12:39:39;93140.59;;;20.12;100.00
21658;BME280;10990;48.174;9.782;2023-07-24T12:42:06;93173.31;;;20.20;100.00
21658;BME280;10990;48.174;9.782;2023-07-24T12:44:34;93179.50;;;20.20;100.00
21658;BME280;10990;48.174;9.782;2023-07-24T12:47:01;93180.28;;;20.21;100.00
21658;BME280;10990;48.174;9.782;2023-07-24T12:49:27;93110.56;;;20.00;100.00
21658;BME280;10990;48.174;9.782;2023-07-24T12:51:54;93053.97;;;19.61;100.00